createdAt,value
2023-04-13T00:01:46.226Z,27.6
2023-04-13T00:07:39.470Z,27.6
2023-04-13T00:13:32.129Z,27.6
2023-04-13T00:19:24.682Z,27.6
2023-04-13T00:25:15.159Z,27.6
2023-04-13T00:31:07.028Z,27.6
2023-04-13T00:36:59.020Z,27.6
2023-04-13T00:42:49.760Z,27.5
2023-04-13T00:48:42.137Z,27.5
2023-04-13T00:54:34.106Z,27.4
2023-04-13T01:00:24.893Z,27.4
2023-04-13T01:06:18.742Z,27.4
2023-04-13T01:11:54.123Z,27.4
2023-04-13T01:18:01.592Z,27.3
2023-04-13T01:24:31.602Z,27.3
2023-04-13T01:30:23.308Z,27.3
2023-04-13T01:35:59.687Z,27.3
2023-04-13T01:41:51.429Z,27.3
2023-04-13T01:47:42.555Z,27.2
2023-04-13T01:53:18.479Z,27.2
2023-04-13T01:59:10.348Z,27.1
2023-04-13T02:05:04.570Z,27.1
2023-04-13T02:10:55.560Z,27.1
2023-04-13T02:16:47.159Z,27
2023-04-13T02:22:38.226Z,27
2023-04-13T02:28:30.064Z,27
2023-04-13T02:34:22.214Z,26.9
2023-04-13T02:40:13.473Z,26.9
2023-04-13T02:46:04.515Z,26.9
2023-04-13T02:51:56.068Z,26.9
2023-04-13T02:57:47.512Z,26.9
2023-04-13T03:03:39.462Z,26.8
2023-04-13T03:09:32.720Z,26.8
2023-04-13T03:15:25.167Z,26.8
2023-04-13T03:21:00.457Z,26.8
2023-04-13T03:26:53.109Z,26.7
2023-04-13T03:32:44.912Z,26.7
2023-04-13T03:38:37.042Z,26.7
2023-04-13T03:44:29.707Z,26.6
2023-04-13T03:50:06.029Z,26.6
2023-04-13T03:55:57.469Z,26.6
2023-04-13T04:01:49.363Z,26.5
2023-04-13T04:07:42.860Z,26.5
2023-04-13T04:13:37.220Z,26.4
2023-04-13T04:19:32.043Z,26.4
2023-04-13T04:25:23.677Z,26.3
2023-04-13T04:31:14.902Z,26.1
2023-04-13T04:42:59.689Z,25.9
2023-04-13T04:48:35.791Z,25.9
2023-04-13T04:54:12.038Z,25.9
2023-04-13T05:00:04.194Z,25.8
2023-04-13T05:05:41.010Z,25.7
2023-04-13T05:11:33.059Z,25.5
2023-04-13T05:17:24.934Z,25.4
2023-04-13T05:23:18.733Z,25.3
2023-04-13T05:29:10.504Z,25.3
2023-04-13T05:35:04.878Z,25.2
2023-04-13T05:40:55.641Z,25.1
2023-04-13T05:46:48.731Z,25.1
2023-04-13T05:52:40.911Z,25
2023-04-13T05:58:31.277Z,25
2023-04-13T06:04:27.842Z,24.9
2023-04-13T06:10:20.209Z,24.9
2023-04-13T06:16:11.737Z,24.9
2023-04-13T06:22:04.885Z,24.9
2023-04-13T06:27:56.855Z,24.8
2023-04-13T06:33:48.968Z,24.8
2023-04-13T06:39:44.243Z,24.8
2023-04-13T06:45:30.901Z,24.8
2023-04-13T06:51:22.442Z,21.5
2023-04-13T06:57:14.089Z,49.4
2023-04-13T07:03:20.626Z,45.5
2023-04-13T07:09:15.280Z,41.9
2023-04-13T07:15:07.479Z,48.6
2023-04-13T07:20:44.523Z,49.8
2023-04-13T07:26:34.733Z,45.4
2023-04-13T07:32:30.742Z,46.5
2023-04-13T07:38:25.550Z,51.8
2023-04-13T07:44:17.141Z,45.5
2023-04-13T07:50:09.439Z,46.1
2023-04-13T07:56:01.039Z,53.4
2023-04-13T08:01:51.726Z,46.2
2023-04-13T08:07:48.539Z,44.8
2023-04-13T08:13:40.563Z,56.6
2023-04-13T08:19:19.511Z,50.5
2023-04-13T08:25:13.451Z,49.8
2023-04-13T08:31:06.442Z,50.9
2023-04-13T08:36:58.048Z,51.5
2023-04-13T08:42:51.694Z,52.3
2023-04-13T08:48:53.282Z,53.1
2023-04-13T08:54:29.067Z,53.6
2023-04-13T09:00:28.072Z,54.4
2023-04-13T09:06:37.317Z,55.2
2023-04-13T09:12:28.293Z,55.8
2023-04-13T09:18:04.835Z,56.1
2023-04-13T09:23:55.917Z,56.1
2023-04-13T09:32:16.356Z,57.4
2023-04-13T09:38:01.251Z,57.7
2023-04-13T09:43:07.326Z,58.4
2023-04-13T09:48:27.624Z,58.8
2023-04-13T09:54:05.195Z,59.1
2023-04-13T09:59:41.601Z,59.3
2023-04-13T10:11:22.875Z,59.9
2023-04-13T10:17:23.639Z,60.1
2023-04-13T10:23:17.727Z,60.6
2023-04-13T10:29:26.459Z,60.8
2023-04-13T10:35:06.878Z,60.6
2023-04-13T10:41:02.448Z,60.8
2023-04-13T10:46:56.821Z,60.7
2023-04-13T10:52:18.136Z,60.6
2023-04-13T10:57:56.720Z,60.9
2023-04-13T11:04:21.128Z,61.3
2023-04-13T11:09:42.153Z,61.3
2023-04-13T11:15:28.029Z,61.3
2023-04-13T11:21:08.411Z,61.6
2023-04-13T11:26:45.120Z,61.5
2023-04-13T11:32:05.060Z,61.8
2023-04-13T11:37:41.724Z,61.9
2023-04-13T11:43:31.965Z,61.6
2023-04-13T11:49:23.838Z,61.2
2023-04-13T11:55:32.897Z,59.8
2023-04-13T12:01:25.547Z,52.5
2023-04-13T12:08:05.930Z,55.7
2023-04-13T12:16:45.192Z,61.6
2023-04-13T12:23:39.584Z,57
2023-04-13T12:29:55.400Z,52.3
2023-04-13T12:35:46.728Z,64.8
2023-04-13T12:41:40.166Z,59.1
2023-04-13T12:47:31.889Z,52.5
2023-04-13T12:53:24.309Z,47.3
2023-04-13T12:59:16.403Z,64.4
2023-04-13T13:05:17.125Z,58.4
2023-04-13T13:11:19.528Z,52.7
2023-04-13T13:17:12.369Z,46.5
2023-04-13T13:23:18.930Z,60.7
2023-04-13T13:30:31.707Z,54.9
2023-04-13T13:36:24.044Z,49.7
2023-04-13T13:42:01.259Z,44.5
2023-04-13T13:47:38.779Z,40.8
2023-04-13T13:53:48.334Z,38.3
2023-04-13T13:59:39.257Z,36.4
2023-04-13T14:05:16.444Z,35.1
2023-04-13T14:11:08.366Z,34
2023-04-13T14:16:55.168Z,33.1
2023-04-13T14:22:58.276Z,32.3
2023-04-13T14:28:49.636Z,31.6
2023-04-13T14:34:41.077Z,31.1
2023-04-13T14:40:34.754Z,30.6
2023-04-13T14:46:26.854Z,30.2
2023-04-13T14:52:19.415Z,29.8
2023-04-13T14:58:11.066Z,29.3
2023-04-13T15:04:05.200Z,28.9
2023-04-13T15:09:59.966Z,28.6
2023-04-13T15:15:53.741Z,28.4
2023-04-13T15:21:46.806Z,28
2023-04-13T15:27:38.722Z,27.9
2023-04-13T15:33:31.266Z,27.7
2023-04-13T15:39:24.040Z,27.6
2023-04-13T15:45:15.172Z,27.4
2023-04-13T15:51:07.742Z,27.3
2023-04-13T15:56:59.649Z,27.3
2023-04-13T16:02:52.066Z,27.4
2023-04-13T16:08:47.611Z,27.7
2023-04-13T16:14:54.114Z,27.9
2023-04-13T16:20:46.718Z,28
2023-04-13T16:26:39.079Z,28.1
2023-04-13T16:32:30.838Z,28.1
2023-04-13T16:38:39.031Z,28
2023-04-13T16:44:31.929Z,27.9
2023-04-13T16:56:01.571Z,27.7
2023-04-13T17:01:56.324Z,27.6
2023-04-13T17:08:05.303Z,27.6
2023-04-13T17:13:41.475Z,27.6
2023-04-13T17:19:18.765Z,27.6
2023-04-13T17:25:11.266Z,27.5
2023-04-13T17:31:03.162Z,27.5
2023-04-13T17:36:58.572Z,27.4
2023-04-13T17:42:51.132Z,27.3
2023-04-13T17:48:43.510Z,27.2
2023-04-13T17:54:36.008Z,27.1
2023-04-13T18:00:29.955Z,27.1
2023-04-13T18:06:10.314Z,27
2023-04-13T18:12:03.631Z,27
2023-04-13T18:17:40.949Z,26.9
2023-04-13T18:23:03.411Z,26.9
2023-04-13T18:28:24.669Z,26.9
2023-04-13T18:34:01.888Z,26.8
2023-04-13T18:39:54.869Z,26.8
2023-04-13T18:45:16.077Z,26.8
2023-04-13T18:50:52.881Z,26.8
2023-04-13T18:56:44.790Z,26.8
2023-04-13T19:02:21.939Z,26.8
2023-04-13T19:08:03.845Z,26.8
2023-04-13T19:13:56.098Z,26.7
2023-04-13T19:19:48.300Z,26.6
2023-04-13T19:25:42.063Z,26.5
2023-04-13T19:31:34.867Z,26.5
2023-04-13T19:37:12.541Z,26.5
2023-04-13T19:43:05.232Z,26.4
2023-04-13T19:48:58.001Z,26.1
2023-04-13T19:54:50.355Z,25.9
2023-04-13T20:00:42.751Z,25.4
2023-04-13T20:06:37.029Z,25
2023-04-13T20:12:28.395Z,24.7
2023-04-13T20:18:21.037Z,24.4
2023-04-13T20:24:13.728Z,24.3
2023-04-13T20:30:08.045Z,24.1
2023-04-13T20:36:01.245Z,24
2023-04-13T20:41:37.742Z,23.9
2023-04-13T20:47:29.903Z,23.8
2023-04-13T20:54:08.228Z,23.7
2023-04-13T20:59:59.573Z,23.6
2023-04-13T21:05:53.180Z,23.4
2023-04-13T21:11:45.672Z,23.4
2023-04-13T21:17:38.728Z,23.3
2023-04-13T21:23:33.314Z,23.3
2023-04-13T21:29:25.223Z,23.2
2023-04-13T21:35:00.997Z,23.1
2023-04-13T21:40:46.521Z,23.1
2023-04-13T21:46:46.333Z,23
2023-04-13T21:52:37.590Z,23
2023-04-13T21:58:31.806Z,22.9
2023-04-13T22:04:26.117Z,22.9
2023-04-13T22:10:31.512Z,22.9
2023-04-13T22:16:23.344Z,22.9
2023-04-13T22:22:17.640Z,22.8
2023-04-13T22:27:53.408Z,22.8
2023-04-13T22:33:45.940Z,22.8
2023-04-13T22:39:38.047Z,22.8
2023-04-13T22:45:29.291Z,22.7
2023-04-13T22:51:20.745Z,22.7
2023-04-13T22:57:12.807Z,22.7
2023-04-13T23:02:49.428Z,22.7
2023-04-13T23:08:46.009Z,22.7
2023-04-13T23:14:22.828Z,22.7
2023-04-13T23:19:59.554Z,22.6
2023-04-13T23:25:51.881Z,22.6
2023-04-13T23:31:43.680Z,22.6
2023-04-13T23:37:35.759Z,22.6
2023-04-13T23:43:26.731Z,22.6
2023-04-13T23:49:19.145Z,22.6
2023-04-13T23:55:10.513Z,22.6
